createdAt,value
2022-08-18T00:01:43.811Z,59.00
2022-08-18T00:04:49.007Z,59.00
2022-08-18T00:07:50.986Z,59.10
2022-08-18T00:10:52.875Z,59.10
2022-08-18T00:13:54.183Z,59.30
2022-08-18T00:16:55.692Z,59.10
2022-08-18T00:19:57.265Z,59.80
2022-08-18T00:23:01.812Z,59.10
2022-08-18T00:26:04.104Z,59.10
2022-08-18T00:29:05.342Z,59.20
2022-08-18T00:32:14.252Z,59.10
2022-08-18T00:35:17.600Z,59.20
2022-08-18T00:38:23.557Z,59.10
2022-08-18T00:41:26.981Z,59.30
2022-08-18T00:44:28.320Z,59.30
2022-08-18T00:47:32.868Z,59.20
2022-08-18T00:50:50.400Z,59.20
2022-08-18T00:53:54.659Z,59.30
2022-08-18T00:56:59.448Z,59.30
2022-08-18T01:00:04.168Z,59.20
2022-08-18T01:03:08.768Z,59.20
2022-08-18T01:06:14.177Z,59.30
2022-08-18T01:09:17.051Z,59.30
2022-08-18T01:12:43.947Z,59.20
2022-08-18T01:15:40.316Z,59.40
2022-08-18T01:18:54.457Z,59.40
2022-08-18T01:22:03.616Z,59.30
2022-08-18T01:25:26.314Z,59.30
2022-08-18T01:28:29.056Z,59.50
2022-08-18T01:31:33.976Z,59.30
2022-08-18T01:34:36.278Z,59.40
2022-08-18T01:37:37.602Z,59.50
2022-08-18T01:41:17.648Z,59.60
2022-08-18T01:44:01.337Z,59.50
2022-08-18T01:47:03.379Z,59.60
2022-08-18T01:50:05.799Z,59.50
2022-08-18T01:53:07.362Z,59.60
2022-08-18T01:56:09.322Z,59.60
2022-08-18T01:59:12.811Z,59.50
2022-08-18T02:02:18.193Z,59.50
2022-08-18T02:05:24.402Z,59.50
2022-08-18T02:08:28.123Z,59.50
2022-08-18T02:11:30.883Z,59.40
2022-08-18T02:14:32.191Z,59.50
2022-08-18T02:17:36.509Z,59.70
2022-08-18T02:20:37.810Z,59.70
2022-08-18T02:23:40.161Z,59.90
2022-08-18T02:26:49.874Z,59.60
2022-08-18T02:29:51.176Z,59.60
2022-08-18T02:32:52.458Z,59.50
2022-08-18T02:35:54.190Z,59.70
2022-08-18T02:38:59.611Z,59.60
2022-08-18T02:42:02.018Z,59.60
2022-08-18T02:45:03.977Z,59.60
2022-08-18T02:48:06.117Z,59.60
2022-08-18T02:51:08.628Z,59.60
2022-08-18T02:54:13.077Z,59.60
2022-08-18T02:57:15.116Z,59.60
2022-08-18T03:00:18.990Z,59.70
2022-08-18T03:03:20.465Z,59.80
2022-08-18T03:06:22.297Z,59.60
2022-08-18T03:09:23.679Z,59.50
2022-08-18T03:12:25.545Z,59.50
2022-08-18T03:15:26.851Z,59.70
2022-08-18T03:18:29.427Z,59.60
2022-08-18T03:21:31.625Z,59.60
2022-08-18T03:24:36.544Z,59.70
2022-08-18T03:27:41.516Z,59.80
2022-08-18T03:30:42.975Z,59.80
2022-08-18T03:33:44.930Z,59.60
2022-08-18T03:36:46.944Z,59.60
2022-08-18T03:39:50.856Z,59.60
2022-08-18T03:42:53.196Z,59.70
2022-08-18T03:45:54.608Z,59.80
2022-08-18T03:48:57.382Z,59.70
2022-08-18T03:51:59.896Z,59.70
2022-08-18T03:55:02.798Z,59.60
2022-08-18T03:58:08.229Z,59.80
2022-08-18T04:01:09.736Z,59.80
2022-08-18T04:04:12.231Z,59.80
2022-08-18T04:07:16.685Z,59.50
2022-08-18T04:10:19.348Z,59.70
2022-08-18T04:13:21.811Z,59.70
2022-08-18T04:16:23.138Z,59.70
2022-08-18T04:19:27.433Z,59.70
2022-08-18T04:22:32.348Z,60.30
2022-08-18T04:25:33.836Z,60.00
2022-08-18T04:28:35.929Z,59.80
2022-08-18T04:31:37.426Z,59.80
2022-08-18T04:34:38.846Z,59.70
2022-08-18T04:37:41.943Z,59.90
2022-08-18T04:40:43.563Z,59.80
2022-08-18T04:43:47.251Z,59.90
2022-08-18T04:46:50.192Z,59.80
2022-08-18T04:49:51.484Z,59.80
2022-08-18T04:53:05.085Z,59.80
2022-08-18T04:56:12.754Z,59.80
2022-08-18T04:59:17.683Z,59.90
2022-08-18T05:02:19.843Z,59.80
2022-08-18T05:05:21.158Z,59.80
2022-08-18T05:08:22.612Z,60.00
2022-08-18T05:11:25.193Z,59.80
2022-08-18T05:14:27.107Z,59.80
2022-08-18T05:17:29.019Z,59.90
2022-08-18T05:20:32.355Z,60.00
2022-08-18T05:23:35.322Z,59.90
2022-08-18T05:26:36.660Z,60.00
2022-08-18T05:29:45.810Z,59.90
2022-08-18T05:32:50.025Z,60.00
2022-08-18T05:35:54.491Z,60.00
2022-08-18T05:38:58.990Z,59.90
2022-08-18T05:42:05.141Z,60.10
2022-08-18T05:45:09.019Z,60.00
2022-08-18T05:48:10.342Z,60.00
2022-08-18T05:51:15.947Z,60.00
2022-08-18T05:54:33.391Z,59.90
2022-08-18T05:57:38.668Z,60.00
2022-08-18T06:00:44.634Z,60.00
2022-08-18T06:03:48.076Z,60.00
2022-08-18T06:06:49.587Z,59.90
2022-08-18T06:09:52.532Z,60.10
2022-08-18T06:12:54.766Z,60.00
2022-08-18T06:16:00.226Z,60.00
2022-08-18T06:19:03.055Z,60.00
2022-08-18T06:22:14.036Z,60.30
2022-08-18T06:25:17.856Z,60.10
2022-08-18T06:28:19.904Z,60.30
2022-08-18T06:31:29.626Z,60.20
2022-08-18T06:34:39.924Z,60.10
2022-08-18T06:37:57.124Z,60.10
2022-08-18T06:41:02.545Z,60.10
2022-08-18T06:44:04.953Z,60.10
2022-08-18T06:47:10.479Z,60.10
2022-08-18T06:50:19.545Z,60.10
2022-08-18T06:53:28.057Z,60.20
2022-08-18T06:56:34.781Z,60.30
2022-08-18T06:59:37.212Z,60.10
2022-08-18T07:02:42.934Z,60.10
2022-08-18T07:05:58.266Z,60.10
2022-08-18T07:09:14.501Z,60.90
2022-08-18T07:12:19.820Z,60.90
2022-08-18T07:15:23.481Z,60.00
2022-08-18T07:18:27.486Z,59.90
2022-08-18T07:21:29.949Z,59.90
2022-08-18T07:24:38.559Z,59.80
2022-08-18T07:27:41.779Z,59.90
2022-08-18T07:31:00.220Z,59.60
2022-08-18T07:34:08.047Z,59.80
2022-08-18T07:37:13.558Z,59.70
2022-08-18T07:40:19.440Z,59.60
2022-08-18T07:43:26.459Z,59.40
2022-08-18T07:49:32.917Z,59.80
2022-08-18T07:52:47.002Z,59.40
2022-08-18T07:55:51.851Z,59.40
2022-08-18T07:58:55.779Z,59.40
2022-08-18T08:02:06.058Z,59.50
2022-08-18T08:05:13.439Z,59.30
2022-08-18T08:08:25.188Z,59.40
2022-08-18T08:11:32.854Z,59.30
2022-08-18T08:14:38.894Z,59.20
2022-08-18T08:17:44.675Z,59.30
2022-08-18T08:20:51.158Z,59.20
2022-08-18T08:23:54.543Z,59.00
2022-08-18T08:27:00.075Z,59.20
2022-08-18T08:30:04.033Z,59.20
2022-08-18T08:33:09.252Z,59.10
2022-08-18T08:36:13.482Z,59.00
2022-08-18T08:39:18.991Z,58.90
2022-08-18T08:42:30.534Z,59.10
2022-08-18T08:45:36.152Z,59.60
2022-08-18T08:48:40.822Z,59.10
2022-08-18T08:51:45.635Z,59.00
2022-08-18T08:54:50.390Z,59.00
2022-08-18T08:57:55.242Z,58.90
2022-08-18T09:00:57.274Z,59.00
2022-08-18T09:04:01.609Z,59.00
2022-08-18T09:07:10.540Z,58.90
2022-08-18T09:10:22.239Z,59.00
2022-08-18T09:13:37.784Z,59.10
2022-08-18T09:16:48.024Z,59.00
2022-08-18T09:19:57.940Z,59.00
2022-08-18T09:23:04.290Z,59.00
2022-08-18T09:26:20.488Z,58.90
2022-08-18T09:29:26.467Z,59.00
2022-08-18T09:32:42.904Z,59.00
2022-08-18T09:35:57.725Z,59.00
2022-08-18T09:39:15.426Z,58.90
2022-08-18T09:45:54.654Z,59.10
2022-08-18T09:49:24.214Z,59.00
2022-08-18T09:50:37.072Z,58.90
2022-08-18T09:52:43.039Z,58.90
2022-08-18T09:55:57.944Z,58.90
2022-08-18T09:59:09.849Z,58.90
2022-08-18T10:02:32.614Z,59.00
2022-08-18T10:05:34.584Z,59.10
2022-08-18T10:08:47.074Z,58.80
2022-08-18T10:11:56.025Z,59.00
2022-08-18T10:15:03.245Z,58.90
2022-08-18T10:18:14.736Z,58.90
2022-08-18T10:21:21.181Z,58.90
2022-08-18T10:24:36.888Z,59.10
2022-08-18T10:27:49.071Z,59.20
2022-08-18T10:31:06.579Z,59.30
2022-08-18T10:34:17.094Z,59.30
2022-08-18T10:37:25.894Z,59.10
2022-08-18T10:40:28.132Z,59.20
2022-08-18T10:46:57.369Z,59.20
2022-08-18T10:50:00.863Z,59.30
2022-08-18T10:56:32.559Z,60.00
2022-08-18T10:59:48.996Z,59.40
2022-08-18T11:03:13.872Z,59.30
2022-08-18T11:06:25.069Z,59.40
2022-08-18T11:09:28.378Z,59.40
2022-08-18T11:12:49.497Z,59.50
2022-08-18T11:15:58.198Z,59.40
2022-08-18T11:19:05.788Z,59.40
2022-08-18T11:22:30.344Z,59.30
2022-08-18T11:25:36.005Z,59.30
2022-08-18T11:28:40.727Z,59.30
2022-08-18T11:31:52.899Z,59.30
2022-08-18T11:35:00.962Z,59.40
2022-08-18T11:38:03.856Z,59.10
2022-08-18T11:41:17.225Z,59.20
2022-08-18T11:44:20.070Z,59.30
2022-08-18T11:47:27.535Z,59.20
2022-08-18T11:50:30.873Z,59.30
2022-08-18T11:53:36.743Z,59.20
2022-08-18T11:56:40.703Z,59.50
2022-08-18T11:59:54.395Z,59.20
2022-08-18T12:03:02.202Z,59.20
2022-08-18T12:06:10.311Z,58.90
2022-08-18T12:09:54.222Z,59.20
2022-08-18T12:12:45.370Z,59.20
2022-08-18T12:15:47.742Z,59.30
2022-08-18T12:18:52.234Z,59.30
2022-08-18T12:21:56.050Z,59.20
2022-08-18T12:24:58.173Z,59.20
2022-08-18T12:28:00.239Z,59.20
2022-08-18T12:31:01.619Z,59.20
2022-08-18T12:34:07.959Z,59.80
2022-08-18T12:37:57.708Z,59.30
2022-08-18T12:40:37.592Z,59.20
2022-08-18T12:43:40.625Z,59.30
2022-08-18T12:46:44.561Z,59.40
2022-08-18T12:49:46.688Z,59.30
2022-08-18T12:52:52.308Z,59.30
2022-08-18T12:55:53.769Z,59.10
2022-08-18T12:58:56.970Z,59.20
2022-08-18T13:01:59.810Z,59.10
2022-08-18T13:05:01.967Z,59.10
2022-08-18T13:08:12.519Z,59.10
2022-08-18T13:11:21.301Z,59.00
2022-08-18T13:14:25.795Z,59.10
2022-08-18T13:17:30.188Z,59.10
2022-08-18T13:20:35.746Z,59.00
2022-08-18T13:23:38.067Z,58.90
2022-08-18T13:26:42.976Z,59.00
2022-08-18T13:29:47.985Z,58.70
2022-08-18T13:33:00.438Z,59.00
2022-08-18T13:36:07.469Z,59.00
2022-08-18T13:39:09.464Z,59.00
2022-08-18T13:42:26.190Z,58.80
2022-08-18T13:45:31.425Z,59.00
2022-08-18T13:48:34.344Z,59.00
2022-08-18T13:51:36.342Z,59.00
2022-08-18T13:54:38.622Z,59.00
2022-08-18T13:57:47.331Z,59.10
2022-08-18T14:00:51.475Z,58.90
2022-08-18T14:03:52.913Z,58.90
2022-08-18T14:06:56.988Z,58.80
2022-08-18T14:10:04.483Z,58.90
2022-08-18T14:13:20.949Z,58.90
2022-08-18T14:16:27.454Z,58.90
2022-08-18T14:23:05.409Z,58.90
2022-08-18T14:26:21.442Z,59.00
2022-08-18T14:29:46.511Z,59.00
2022-08-18T14:32:59.620Z,59.00
2022-08-18T14:36:06.447Z,59.10
2022-08-18T14:39:11.107Z,58.90
2022-08-18T14:42:14.168Z,58.80
2022-08-18T14:45:27.836Z,59.10
2022-08-18T14:48:37.690Z,58.90
2022-08-18T14:51:42.087Z,59.00
2022-08-18T14:54:46.232Z,58.90
2022-08-18T14:57:52.587Z,58.90
2022-08-18T15:00:56.340Z,59.00
2022-08-18T15:03:58.700Z,58.90
2022-08-18T15:07:00.059Z,58.80
2022-08-18T15:10:15.338Z,58.90
2022-08-18T15:13:18.069Z,58.80
2022-08-18T15:16:21.647Z,58.70
2022-08-18T15:19:59.061Z,58.80
2022-08-18T15:23:05.360Z,58.70
2022-08-18T15:26:07.888Z,58.50
2022-08-18T15:29:09.990Z,58.60
2022-08-18T15:32:14.573Z,58.50
2022-08-18T15:35:19.704Z,58.70
2022-08-18T15:38:22.507Z,58.60
2022-08-18T15:41:28.894Z,58.70
2022-08-18T15:44:32.584Z,58.60
2022-08-18T15:47:34.637Z,58.50
2022-08-18T15:50:39.159Z,58.70
2022-08-18T15:53:44.933Z,58.60
2022-08-18T15:56:57.781Z,58.50
2022-08-18T16:00:01.206Z,58.60
2022-08-18T16:03:04.421Z,58.70
2022-08-18T16:06:13.737Z,58.60
2022-08-18T16:09:21.757Z,58.50
2022-08-18T16:12:23.072Z,58.40
2022-08-18T16:15:24.828Z,58.70
2022-08-18T16:18:28.658Z,58.50
2022-08-18T16:21:31.039Z,58.70
2022-08-18T16:24:32.849Z,58.60
2022-08-18T16:27:34.749Z,58.50
2022-08-18T16:30:39.199Z,58.40
2022-08-18T16:33:41.045Z,58.30
2022-08-18T16:36:43.162Z,58.60
2022-08-18T16:39:44.774Z,58.50
2022-08-18T16:42:46.361Z,58.50
2022-08-18T16:45:51.492Z,58.40
2022-08-18T16:48:53.970Z,58.40
2022-08-18T16:51:56.005Z,58.50
2022-08-18T16:54:58.169Z,58.40
2022-08-18T16:58:15.707Z,58.40
2022-08-18T17:01:33.835Z,58.50
2022-08-18T17:04:51.159Z,58.50
2022-08-18T17:07:53.192Z,58.60
2022-08-18T17:10:54.625Z,58.40
2022-08-18T17:13:57.009Z,58.40
2022-08-18T17:16:59.681Z,58.50
2022-08-18T17:20:01.189Z,58.40
2022-08-18T17:23:03.269Z,58.50
2022-08-18T17:26:05.538Z,58.50
2022-08-18T17:29:11.849Z,58.40
2022-08-18T17:32:19.389Z,58.40
2022-08-18T17:35:29.133Z,58.50
2022-08-18T17:38:38.590Z,58.50
2022-08-18T17:41:54.583Z,58.50
2022-08-18T17:44:58.282Z,58.30
2022-08-18T17:48:06.307Z,58.50
2022-08-18T17:51:24.437Z,58.60
2022-08-18T17:54:28.862Z,58.40
2022-08-18T17:57:31.667Z,58.50
2022-08-18T18:00:33.047Z,58.40
2022-08-18T18:03:35.087Z,58.30
2022-08-18T18:06:38.180Z,58.30
2022-08-18T18:09:40.129Z,58.50
2022-08-18T18:12:41.413Z,58.30
2022-08-18T18:15:45.365Z,58.50
2022-08-18T18:18:55.655Z,58.40
2022-08-18T18:22:04.175Z,58.40
2022-08-18T18:25:07.173Z,58.50
2022-08-18T18:28:23.595Z,58.50
2022-08-18T18:31:29.226Z,58.40
2022-08-18T18:34:32.446Z,58.30
2022-08-18T18:37:39.094Z,58.40
2022-08-18T18:40:53.964Z,58.40
2022-08-18T18:44:04.384Z,58.30
2022-08-18T18:47:10.365Z,58.50
2022-08-18T18:50:16.324Z,58.50
2022-08-18T18:53:24.017Z,58.20
2022-08-18T18:56:28.879Z,58.20
2022-08-18T18:59:38.475Z,58.50
2022-08-18T19:02:46.513Z,58.20
2022-08-18T19:05:53.232Z,58.40
2022-08-18T19:08:58.802Z,58.40
2022-08-18T19:12:11.212Z,58.40
2022-08-18T19:15:14.021Z,58.50
2022-08-18T19:18:23.519Z,58.50
2022-08-18T19:22:04.239Z,58.50
2022-08-18T19:24:51.851Z,58.70
2022-08-18T19:27:57.745Z,58.70
2022-08-18T19:31:02.142Z,58.60
2022-08-18T19:34:09.564Z,58.70
2022-08-18T19:37:22.682Z,58.70
2022-08-18T19:40:36.712Z,58.70
2022-08-18T19:43:44.739Z,58.70
2022-08-18T19:46:48.068Z,58.60
2022-08-18T19:49:54.500Z,58.60
2022-08-18T19:53:04.148Z,58.70
2022-08-18T19:56:21.430Z,58.70
2022-08-18T19:59:35.217Z,58.80
2022-08-18T20:02:40.577Z,58.70
2022-08-18T20:05:45.676Z,58.90
2022-08-18T20:09:02.049Z,58.70
2022-08-18T20:12:10.838Z,58.80
2022-08-18T20:15:16.196Z,58.80
2022-08-18T20:18:19.858Z,58.70
2022-08-18T20:21:29.458Z,59.00
2022-08-18T20:24:37.876Z,59.00
2022-08-18T20:27:40.020Z,59.00
2022-08-18T20:30:52.500Z,58.90
2022-08-18T20:34:08.408Z,58.90
2022-08-18T20:37:22.751Z,58.90
2022-08-18T20:40:36.518Z,59.00
2022-08-18T20:43:39.783Z,58.90
2022-08-18T20:46:48.322Z,59.00
2022-08-18T20:49:56.146Z,59.00
2022-08-18T20:53:02.346Z,59.20
2022-08-18T20:56:31.341Z,59.00
2022-08-18T20:59:31.924Z,59.00
2022-08-18T21:02:37.700Z,59.10
2022-08-18T21:05:40.974Z,59.10
2022-08-18T21:08:46.200Z,59.00
2022-08-18T21:11:55.119Z,59.10
2022-08-18T21:14:58.890Z,59.00
2022-08-18T21:18:02.972Z,59.00
2022-08-18T21:21:06.240Z,59.20
2022-08-18T21:24:18.058Z,59.20
2022-08-18T21:27:22.958Z,59.10
2022-08-18T21:30:25.708Z,59.20
2022-08-18T21:33:29.527Z,59.20
2022-08-18T21:36:31.680Z,59.40
2022-08-18T21:39:34.273Z,59.30
2022-08-18T21:42:40.334Z,59.50
2022-08-18T21:45:47.240Z,59.40
2022-08-18T21:48:50.925Z,59.40
2022-08-18T21:51:52.620Z,59.40
2022-08-18T21:54:56.985Z,59.50
2022-08-18T21:58:00.694Z,59.60
2022-08-18T22:01:07.148Z,59.50
2022-08-18T22:04:18.573Z,59.30
2022-08-18T22:07:35.264Z,59.50
2022-08-18T22:10:51.683Z,59.80
2022-08-18T22:14:00.195Z,60.00
2022-08-18T22:17:15.868Z,59.50
2022-08-18T22:20:32.176Z,59.60
2022-08-18T22:23:54.042Z,59.60
2022-08-18T22:27:03.550Z,59.60
2022-08-18T22:30:05.460Z,59.60
2022-08-18T22:33:07.020Z,59.60
2022-08-18T22:36:14.290Z,59.70
2022-08-18T22:39:19.419Z,59.70
2022-08-18T22:42:21.999Z,59.60
2022-08-18T22:45:23.378Z,59.60
2022-08-18T22:48:25.170Z,59.50
2022-08-18T22:51:27.719Z,59.70
2022-08-18T22:54:29.684Z,59.70
2022-08-18T22:57:33.707Z,59.60
2022-08-18T23:00:36.771Z,59.60
2022-08-18T23:03:42.239Z,59.90
2022-08-18T23:06:50.766Z,59.80
2022-08-18T23:09:52.844Z,59.70
2022-08-18T23:12:54.459Z,59.70
2022-08-18T23:16:12.456Z,59.60
2022-08-18T23:19:19.857Z,59.70
2022-08-18T23:22:21.525Z,59.80
2022-08-18T23:25:23.385Z,59.70
2022-08-18T23:28:26.345Z,59.80
2022-08-18T23:31:29.396Z,59.70
2022-08-18T23:34:30.964Z,59.70
2022-08-18T23:37:32.335Z,59.70
2022-08-18T23:40:34.680Z,59.60
2022-08-18T23:43:37.348Z,59.60
2022-08-18T23:46:39.213Z,59.60
2022-08-18T23:49:40.493Z,59.60
2022-08-18T23:52:42.075Z,59.60
2022-08-18T23:55:43.882Z,59.50
2022-08-18T23:58:45.253Z,59.60
